createdAt,value
2018-05-16T00:00:18.822Z,0.0
2018-05-16T00:01:18.765Z,0.0
2018-05-16T00:02:18.472Z,0.0
2018-05-16T00:03:18.810Z,0.0
2018-05-16T00:05:18.501Z,0.0
2018-05-16T00:06:32.890Z,0.0
2018-05-16T00:07:22.277Z,0.0
2018-05-16T00:08:18.517Z,0.0
2018-05-16T00:09:18.409Z,0.0
2018-05-16T00:10:23.219Z,0.0
2018-05-16T00:11:21.630Z,0.0
2018-05-16T00:12:23.458Z,0.0
2018-05-16T00:13:19.659Z,0.0
2018-05-16T00:14:18.912Z,0.0
2018-05-16T00:15:25.481Z,0.0
2018-05-16T00:16:22.477Z,0.0
2018-05-16T00:18:18.965Z,0.5
2018-05-16T00:19:19.544Z,0.5
2018-05-16T00:20:18.470Z,0.5
2018-05-16T00:21:18.562Z,0.5
2018-05-16T00:22:18.512Z,1.9
2018-05-16T00:23:24.498Z,1.9
2018-05-16T00:25:22.584Z,2.2
2018-05-16T00:26:24.412Z,2.2
2018-05-16T00:27:26.645Z,3.0
2018-05-16T00:28:20.312Z,3.0
2018-05-16T00:30:58.833Z,3.0
2018-05-16T00:31:18.457Z,3.0
2018-05-16T00:32:28.386Z,2.2
2018-05-16T00:33:19.107Z,2.2
2018-05-16T00:34:20.390Z,1.1
2018-05-16T00:35:18.435Z,1.1
2018-05-16T00:36:18.512Z,1.1
2018-05-16T00:37:18.780Z,3.0
2018-05-16T00:38:18.621Z,3.0
2018-05-16T00:39:18.689Z,3.0
2018-05-16T00:40:18.592Z,2.2
2018-05-16T00:41:20.211Z,2.2
2018-05-16T00:42:18.375Z,1.9
2018-05-16T00:43:19.847Z,1.9
2018-05-16T00:44:18.352Z,1.9
2018-05-16T00:47:18.511Z,1.6
2018-05-16T00:48:18.349Z,1.6
2018-05-16T00:49:18.491Z,1.6
2018-05-16T00:50:18.579Z,3.0
2018-05-16T00:51:19.314Z,3.0
2018-05-16T00:52:18.932Z,4.4
2018-05-16T00:53:18.546Z,4.4
2018-05-16T00:54:18.295Z,4.4
2018-05-16T00:55:19.026Z,4.4
2018-05-16T00:56:18.599Z,4.4
2018-05-16T00:57:18.259Z,5.0
2018-05-16T00:58:18.932Z,5.0
2018-05-16T00:59:18.334Z,5.0
2018-05-16T01:00:18.292Z,2.5
2018-05-16T01:01:19.005Z,2.5
2018-05-16T01:02:18.375Z,4.7
2018-05-16T01:03:18.335Z,4.7
2018-05-16T01:04:19.090Z,4.7
2018-05-16T01:05:18.494Z,5.2
2018-05-16T01:06:20.983Z,5.2
2018-05-16T01:07:18.439Z,5.2
2018-05-16T01:08:18.491Z,5.2
2018-05-16T01:09:21.869Z,5.2
2018-05-16T01:10:20.069Z,3.8
2018-05-16T01:11:19.060Z,3.8
2018-05-16T01:12:22.412Z,3.8
2018-05-16T01:13:18.462Z,16.1
2018-05-16T01:14:18.419Z,16.1
2018-05-16T01:15:18.428Z,5.2
2018-05-16T01:16:21.622Z,5.2
2018-05-16T01:17:18.474Z,5.2
2018-05-16T01:18:21.912Z,3.0
2018-05-16T01:19:18.674Z,3.0
2018-05-16T01:20:18.408Z,3.6
2018-05-16T01:21:18.521Z,3.6
2018-05-16T01:22:19.022Z,3.6
2018-05-16T01:23:18.417Z,2.5
2018-05-16T01:24:18.556Z,2.5
2018-05-16T01:25:18.448Z,4.7
2018-05-16T01:26:19.471Z,4.7
2018-05-16T01:27:18.488Z,4.7
2018-05-16T01:28:18.412Z,3.8
2018-05-16T01:29:35.284Z,3.8
2018-05-16T01:30:18.446Z,3.0
2018-05-16T01:31:18.441Z,3.0
2018-05-16T01:32:18.456Z,3.0
2018-05-16T01:33:29.080Z,2.7
2018-05-16T01:34:23.747Z,2.7
2018-05-16T01:35:23.486Z,2.7
2018-05-16T01:36:30.502Z,2.7
2018-05-16T01:37:23.497Z,2.7
2018-05-16T01:38:29.288Z,3.3
2018-05-16T01:39:20.745Z,3.3
2018-05-16T01:40:22.809Z,3.3
2018-05-16T01:41:27.803Z,1.3
2018-05-16T01:42:22.732Z,1.3
2018-05-16T01:43:23.629Z,4.4
2018-05-16T01:44:29.973Z,4.4
2018-05-16T01:45:18.470Z,4.4
2018-05-16T01:46:18.540Z,4.4
2018-05-16T01:47:18.557Z,4.4
2018-05-16T01:48:18.580Z,1.6
2018-05-16T01:49:18.588Z,1.6
2018-05-16T01:51:33.126Z,0.8
2018-05-16T01:52:31.836Z,0.8
2018-05-16T01:53:32.767Z,1.9
2018-05-16T01:54:32.117Z,1.9
2018-05-16T01:55:32.440Z,1.9
2018-05-16T01:56:33.378Z,0.0
2018-05-16T01:57:31.829Z,0.0
2018-05-16T01:58:32.996Z,0.0
2018-05-16T01:59:31.822Z,0.0
2018-05-16T02:00:31.723Z,0.0
2018-05-16T02:02:00.060Z,0.2
2018-05-16T02:02:31.909Z,0.2
2018-05-16T02:03:32.421Z,1.9
2018-05-16T02:04:31.798Z,1.9
2018-05-16T02:05:32.179Z,1.9
2018-05-16T02:06:31.843Z,2.2
2018-05-16T02:07:32.509Z,2.2
2018-05-16T02:08:31.846Z,0.5
2018-05-16T02:09:31.951Z,0.5
2018-05-16T02:10:31.885Z,0.5
2018-05-16T02:11:31.853Z,0.0
2018-05-16T02:12:31.844Z,0.0
2018-05-16T02:13:32.791Z,0.8
2018-05-16T02:14:31.773Z,0.8
2018-05-16T02:15:32.426Z,0.8
2018-05-16T02:16:31.784Z,0.8
2018-05-16T02:17:31.881Z,0.8
2018-05-16T02:18:34.067Z,1.6
2018-05-16T02:19:33.491Z,1.6
2018-05-16T02:20:33.791Z,1.6
2018-05-16T02:21:32.263Z,1.9
2018-05-16T02:22:32.152Z,1.9
2018-05-16T02:23:32.798Z,1.9
2018-05-16T02:24:33.380Z,1.9
2018-05-16T02:25:31.923Z,1.9
2018-05-16T02:26:32.158Z,0.5
2018-05-16T02:27:31.924Z,0.5
2018-05-16T02:28:31.870Z,0.5
2018-05-16T02:29:33.489Z,1.3
2018-05-16T02:31:32.210Z,1.6
2018-05-16T02:32:31.808Z,1.6
2018-05-16T02:33:31.947Z,1.6
2018-05-16T02:34:31.847Z,2.2
2018-05-16T02:35:32.368Z,2.2
2018-05-16T02:36:31.872Z,1.9
2018-05-16T02:37:32.850Z,1.9
2018-05-16T02:38:31.928Z,1.9
2018-05-16T02:39:32.131Z,4.1
2018-05-16T02:40:31.768Z,4.1
2018-05-16T02:41:31.794Z,0.5
2018-05-16T02:42:32.399Z,0.5
2018-05-16T02:43:34.369Z,0.5
2018-05-16T02:44:39.252Z,1.6
2018-05-16T02:45:31.851Z,1.6
2018-05-16T02:46:31.712Z,2.7
2018-05-16T02:47:39.757Z,2.7
2018-05-16T02:48:54.295Z,2.7
2018-05-16T02:49:32.938Z,3.0
2018-05-16T02:50:52.718Z,3.0
2018-05-16T02:51:32.756Z,1.3
2018-05-16T02:52:31.846Z,1.3
2018-05-16T02:53:32.122Z,1.3
2018-05-16T02:54:34.437Z,3.6
2018-05-16T02:55:40.385Z,3.6
2018-05-16T02:58:32.425Z,3.6
2018-05-16T02:59:32.528Z,3.6
2018-05-16T03:00:32.248Z,3.6
2018-05-16T03:01:31.895Z,3.6
2018-05-16T03:02:31.863Z,2.7
2018-05-16T03:03:32.623Z,2.7
2018-05-16T03:04:37.259Z,3.6
2018-05-16T03:05:32.591Z,3.6
2018-05-16T03:06:31.893Z,3.6
2018-05-16T03:07:32.799Z,3.0
2018-05-16T03:09:01.516Z,3.0
2018-05-16T03:09:55.649Z,1.6
2018-05-16T03:10:31.983Z,1.6
2018-05-16T03:11:34.313Z,1.6
2018-05-16T03:12:33.739Z,2.7
2018-05-16T03:13:32.066Z,2.7
2018-05-16T03:14:31.908Z,1.9
2018-05-16T03:15:31.990Z,1.9
2018-05-16T03:16:32.382Z,1.9
2018-05-16T03:17:32.302Z,0.0
2018-05-16T03:18:33.838Z,0.0
2018-05-16T03:19:32.411Z,0.8
2018-05-16T03:20:31.832Z,0.8
2018-05-16T03:21:32.255Z,0.8
2018-05-16T03:22:31.858Z,2.2
2018-05-16T03:23:32.493Z,2.2
2018-05-16T03:24:31.868Z,2.2
2018-05-16T03:25:32.527Z,0.8
2018-05-16T03:26:32.426Z,0.8
2018-05-16T03:27:32.463Z,1.9
2018-05-16T03:28:32.676Z,1.9
2018-05-16T03:30:32.336Z,1.1
2018-05-16T03:31:32.139Z,1.1
2018-05-16T03:32:34.157Z,2.2
2018-05-16T03:33:32.908Z,2.2
2018-05-16T03:34:32.155Z,2.2
2018-05-16T03:45:26.727Z,1.1
2018-05-16T03:46:24.118Z,1.3
2018-05-16T03:47:24.200Z,1.3
2018-05-16T03:48:24.198Z,2.2
2018-05-16T03:49:24.210Z,2.2
2018-05-16T03:50:24.186Z,0.0
2018-05-16T03:51:24.251Z,0.0
2018-05-16T03:52:24.255Z,0.0
2018-05-16T03:53:24.251Z,1.3
2018-05-16T03:54:24.519Z,1.3
2018-05-16T03:55:26.914Z,0.5
2018-05-16T03:56:24.181Z,0.5
2018-05-16T03:57:24.221Z,0.5
2018-05-16T03:58:24.240Z,0.0
2018-05-16T03:59:24.339Z,0.0
2018-05-16T04:00:24.877Z,0.0
2018-05-16T04:01:24.562Z,0.0
2018-05-16T04:02:24.343Z,0.0
2018-05-16T04:03:24.231Z,1.6
2018-05-16T04:04:24.555Z,1.6
2018-05-16T04:05:26.769Z,1.6
2018-05-16T04:06:24.824Z,1.6
2018-05-16T04:07:24.306Z,1.6
2018-05-16T04:08:24.301Z,0.5
2018-05-16T04:09:24.251Z,0.5
2018-05-16T04:10:24.227Z,1.1
2018-05-16T04:11:24.329Z,1.1
2018-05-16T04:12:24.330Z,1.1
2018-05-16T04:13:24.331Z,1.3
2018-05-16T04:14:24.280Z,1.3
2018-05-16T04:15:25.628Z,1.3
2018-05-16T04:16:25.058Z,1.3
2018-05-16T04:17:24.257Z,1.3
2018-05-16T04:18:24.326Z,1.3
2018-05-16T04:19:24.572Z,1.3
2018-05-16T04:20:24.227Z,1.3
2018-05-16T04:21:24.226Z,1.3
2018-05-16T04:22:25.876Z,1.3
2018-05-16T04:23:24.596Z,6.6
2018-05-16T04:24:26.346Z,6.6
2018-05-16T04:25:24.202Z,6.6
2018-05-16T04:26:24.258Z,0.5
2018-05-16T04:27:24.224Z,0.5
2018-05-16T04:28:24.239Z,0.2
2018-05-16T04:29:24.293Z,0.2
2018-05-16T04:30:24.278Z,0.2
2018-05-16T04:31:24.926Z,0.5
2018-05-16T04:32:24.319Z,0.5
2018-05-16T04:33:24.268Z,0.0
2018-05-16T04:34:52.790Z,0.0
2018-05-16T04:35:24.337Z,0.0
2018-05-16T04:36:24.316Z,0.2
2018-05-16T04:37:24.296Z,0.2
2018-05-16T04:38:24.337Z,1.1
2018-05-16T04:39:24.553Z,1.1
2018-05-16T04:40:24.293Z,1.1
2018-05-16T04:41:24.238Z,0.0
2018-05-16T04:42:24.264Z,0.0
2018-05-16T04:43:24.309Z,0.0
2018-05-16T04:44:24.288Z,0.0
2018-05-16T04:45:24.357Z,0.0
2018-05-16T04:46:24.255Z,0.0
2018-05-16T04:47:24.566Z,0.0
2018-05-16T04:48:25.236Z,0.0
2018-05-16T04:49:24.194Z,0.0
2018-05-16T04:50:24.272Z,0.0
2018-05-16T04:51:25.007Z,0.2
2018-05-16T04:52:24.336Z,0.2
2018-05-16T04:53:24.283Z,0.2
2018-05-16T04:54:24.360Z,0.0
2018-05-16T04:55:24.235Z,0.0
2018-05-16T04:56:24.282Z,0.2
2018-05-16T04:57:24.328Z,0.2
2018-05-16T04:58:24.561Z,0.2
2018-05-16T04:59:24.309Z,0.2
2018-05-16T05:00:24.601Z,0.2
2018-05-16T05:01:24.385Z,1.3
2018-05-16T05:02:24.311Z,1.3
2018-05-16T05:03:24.286Z,1.3
2018-05-16T05:04:24.322Z,0.0
2018-05-16T05:05:24.336Z,0.0
2018-05-16T05:06:24.421Z,0.0
2018-05-16T05:07:24.513Z,0.0
2018-05-16T05:08:24.424Z,0.0
2018-05-16T05:09:36.371Z,0.2
2018-05-16T05:10:26.379Z,0.2
2018-05-16T05:11:24.356Z,0.0
2018-05-16T05:12:24.694Z,0.0
2018-05-16T05:13:24.411Z,0.0
2018-05-16T05:14:25.255Z,0.0
2018-05-16T05:15:24.492Z,0.0
2018-05-16T05:16:24.414Z,1.3
2018-05-16T05:17:24.362Z,1.3
2018-05-16T05:18:25.679Z,1.3
2018-05-16T05:19:29.353Z,1.6
2018-05-16T05:20:24.729Z,1.6
2018-05-16T05:21:24.512Z,1.6
2018-05-16T05:22:24.749Z,0.5
2018-05-16T05:23:24.300Z,0.5
2018-05-16T05:24:24.504Z,0.5
2018-05-16T05:25:28.476Z,0.5
2018-05-16T05:26:29.531Z,0.5
2018-05-16T05:27:26.316Z,3.6
2018-05-16T05:28:24.537Z,3.6
2018-05-16T05:29:24.775Z,0.2
2018-05-16T05:30:28.185Z,0.2
2018-05-16T05:31:24.634Z,0.2
2018-05-16T05:32:28.360Z,3.6
2018-05-16T05:33:24.557Z,3.6
2018-05-16T05:34:26.580Z,2.7
2018-05-16T05:35:24.651Z,2.7
2018-05-16T05:36:24.567Z,2.7
2018-05-16T05:37:24.956Z,1.9
2018-05-16T05:38:26.851Z,1.9
2018-05-16T05:39:40.980Z,1.9
2018-05-16T05:40:26.289Z,1.9
2018-05-16T05:42:30.097Z,3.0
2018-05-16T05:43:33.579Z,3.0
2018-05-16T05:44:24.576Z,1.3
2018-05-16T05:45:24.622Z,1.3
2018-05-16T05:46:29.079Z,1.3
2018-05-16T05:47:41.742Z,0.2
2018-05-16T05:48:43.930Z,0.2
2018-05-16T05:49:25.634Z,0.2
2018-05-16T05:50:27.420Z,1.1
2018-05-16T05:51:26.833Z,1.1
2018-05-16T05:52:39.419Z,2.7
2018-05-16T05:53:29.539Z,2.7
2018-05-16T05:55:39.289Z,1.3
2018-05-16T05:56:57.970Z,1.3
2018-05-16T05:57:49.822Z,1.6
2018-05-16T05:58:48.687Z,1.6
2018-05-16T05:59:28.268Z,1.6
2018-05-16T06:00:28.787Z,0.8
2018-05-16T06:01:25.498Z,0.8
2018-05-16T06:02:26.079Z,1.1
2018-05-16T06:03:36.060Z,1.1
2018-05-16T06:04:40.904Z,1.1
2018-05-16T06:05:32.627Z,1.1
2018-05-16T06:06:30.530Z,1.1
2018-05-16T06:20:29.153Z,0.0
2018-05-16T06:21:32.207Z,0.5
2018-05-16T06:22:30.529Z,0.8
2018-05-16T06:23:31.769Z,0.8
2018-05-16T06:24:34.852Z,0.8
2018-05-16T06:25:30.502Z,0.5
2018-05-16T06:26:34.854Z,0.5
2018-05-16T06:27:31.141Z,0.5
2018-05-16T06:28:35.040Z,1.6
2018-05-16T06:30:39.504Z,3.8
2018-05-16T06:31:33.185Z,3.8
2018-05-16T06:32:38.994Z,3.8
2018-05-16T06:33:40.924Z,3.6
2018-05-16T06:34:36.037Z,3.6
2018-05-16T06:35:41.038Z,3.0
2018-05-16T06:36:40.146Z,3.0
2018-05-16T06:37:29.983Z,3.0
2018-05-16T06:38:30.083Z,3.6
2018-05-16T06:40:30.065Z,1.9
2018-05-16T06:42:34.952Z,1.9
2018-05-16T06:43:53.170Z,4.4
2018-05-16T06:44:45.542Z,4.4
2018-05-16T06:45:33.280Z,4.1
2018-05-16T06:46:33.088Z,4.1
2018-05-16T06:47:33.471Z,4.1
2018-05-16T06:48:44.532Z,5.2
2018-05-16T06:49:33.641Z,5.2
2018-05-16T06:50:37.963Z,3.3
2018-05-16T06:51:41.292Z,3.3
2018-05-16T06:52:40.687Z,3.3
2018-05-16T06:53:33.543Z,4.7
2018-05-16T06:54:32.434Z,4.7
2018-05-16T06:55:29.974Z,4.7
2018-05-16T06:57:42.353Z,4.7
2018-05-16T06:58:46.709Z,4.7
2018-05-16T06:59:47.651Z,4.7
2018-05-16T07:01:33.115Z,4.7
2018-05-16T07:02:31.838Z,4.7
2018-05-16T07:03:41.028Z,2.2
2018-05-16T07:04:30.164Z,2.2
2018-05-16T07:05:38.319Z,2.2
2018-05-16T07:06:53.456Z,4.4
2018-05-16T07:07:50.967Z,4.4
2018-05-16T07:08:55.658Z,4.4
2018-05-16T07:09:44.431Z,4.4
2018-05-16T07:10:37.183Z,4.4
2018-05-16T07:11:48.372Z,4.7
2018-05-16T07:12:43.412Z,4.7
2018-05-16T07:13:31.098Z,6.1
2018-05-16T07:14:31.409Z,6.1
2018-05-16T07:15:32.786Z,6.1
2018-05-16T07:17:32.644Z,5.0
2018-05-16T07:18:30.079Z,6.1
2018-05-16T07:19:30.182Z,6.1
2018-05-16T07:20:30.794Z,6.1
2018-05-16T07:21:30.386Z,4.4
2018-05-16T07:22:30.085Z,4.4
2018-05-16T07:23:31.611Z,4.4
2018-05-16T07:24:30.106Z,4.4
2018-05-16T07:25:31.025Z,4.4
2018-05-16T07:26:30.411Z,3.0
2018-05-16T07:27:30.000Z,3.0
2018-05-16T07:28:32.670Z,3.0
2018-05-16T07:29:30.135Z,3.0
2018-05-16T07:30:46.965Z,3.0
2018-05-16T07:31:33.395Z,3.3
2018-05-16T07:32:30.274Z,3.3
2018-05-16T07:33:30.166Z,3.3
2018-05-16T07:34:48.235Z,2.7
2018-05-16T07:35:34.384Z,2.7
2018-05-16T07:36:37.029Z,1.9
2018-05-16T07:37:30.197Z,1.9
2018-05-16T07:38:33.927Z,1.9
2018-05-16T07:39:30.353Z,0.2
2018-05-16T07:40:30.153Z,0.2
2018-05-16T07:41:30.135Z,0.2
2018-05-16T07:42:30.183Z,0.2
2018-05-16T07:43:30.231Z,0.2
2018-05-16T07:45:34.110Z,2.7
2018-05-16T07:46:30.685Z,4.4
2018-05-16T07:47:36.238Z,4.4
2018-05-16T07:48:30.139Z,4.4
2018-05-16T07:49:38.058Z,4.1
2018-05-16T07:50:30.170Z,4.1
2018-05-16T07:52:39.264Z,4.4
2018-05-16T07:53:33.481Z,4.4
2018-05-16T07:55:34.372Z,2.5
2018-05-16T07:57:36.872Z,1.6
2018-05-16T07:58:40.496Z,1.6
2018-05-16T07:59:35.616Z,0.8
2018-05-16T08:00:41.833Z,0.8
2018-05-16T08:02:46.695Z,3.6
2018-05-16T08:03:45.243Z,3.6
2018-05-16T08:04:40.377Z,3.0
2018-05-16T08:06:49.061Z,3.0
2018-05-16T08:07:35.817Z,3.3
2018-05-16T08:08:37.546Z,3.3
2018-05-16T08:10:33.708Z,3.3
2018-05-16T08:11:36.718Z,3.3
2018-05-16T08:12:31.709Z,3.3
2018-05-16T08:13:32.325Z,3.3
2018-05-16T08:14:34.579Z,3.3
2018-05-16T08:15:37.987Z,3.3
2018-05-16T08:17:00.064Z,3.3
2018-05-16T08:17:37.106Z,4.1
2018-05-16T08:18:34.433Z,4.1
2018-05-16T08:19:31.638Z,3.3
2018-05-16T08:20:34.358Z,3.3
2018-05-16T08:21:33.171Z,3.3
2018-05-16T08:22:35.107Z,3.3
2018-05-16T08:23:34.125Z,3.3
2018-05-16T08:24:52.700Z,1.9
2018-05-16T08:25:35.365Z,1.9
2018-05-16T08:26:48.253Z,1.9
2018-05-16T08:27:59.000Z,4.1
2018-05-16T08:28:46.685Z,4.1
2018-05-16T08:29:41.781Z,4.1
2018-05-16T08:30:40.094Z,4.1
2018-05-16T08:31:39.107Z,4.1
2018-05-16T08:32:37.356Z,5.0
2018-05-16T08:33:33.945Z,5.0
2018-05-16T08:34:32.213Z,5.0
2018-05-16T08:35:35.116Z,4.4
2018-05-16T08:36:34.683Z,4.4
2018-05-16T08:38:43.151Z,2.7
2018-05-16T08:39:48.580Z,2.7
2018-05-16T08:41:13.880Z,3.6
2018-05-16T08:41:56.236Z,3.6
2018-05-16T08:42:59.897Z,4.1
2018-05-16T08:43:43.840Z,4.1
2018-05-16T08:44:43.430Z,4.1
2018-05-16T08:46:48.475Z,1.6
2018-05-16T08:48:02.292Z,3.8
2018-05-16T08:49:12.379Z,3.8
2018-05-16T08:49:47.154Z,3.8
2018-05-16T08:50:54.565Z,3.6
2018-05-16T08:51:58.474Z,3.6
2018-05-16T08:52:48.156Z,4.1
2018-05-16T08:53:50.923Z,4.1
2018-05-16T08:54:44.312Z,4.1
2018-05-16T08:55:45.043Z,5.0
2018-05-16T08:56:45.583Z,5.0
2018-05-16T08:57:49.490Z,4.4
2018-05-16T08:58:50.748Z,4.4
2018-05-16T08:59:49.782Z,4.4
2018-05-16T09:00:46.954Z,2.2
2018-05-16T09:01:47.036Z,2.2
2018-05-16T09:02:45.161Z,2.2
2018-05-16T09:03:50.853Z,2.2
2018-05-16T09:04:45.049Z,2.2
2018-05-16T09:06:43.136Z,6.1
2018-05-16T09:38:59.939Z,1.6
2018-05-16T09:41:40.142Z,1.6
2018-05-16T09:44:15.172Z,1.6
2018-05-16T09:50:46.356Z,1.6
2018-05-16T09:52:57.858Z,1.6
2018-05-16T09:53:07.072Z,1.6
2018-05-16T09:54:13.911Z,4.4
2018-05-16T09:56:26.827Z,2.2
2018-05-16T09:57:39.259Z,2.2
2018-05-16T09:58:11.776Z,2.2
2018-05-16T09:59:21.867Z,0.0
2018-05-16T10:00:08.271Z,0.0
2018-05-16T10:02:22.505Z,2.5
2018-05-16T10:04:17.238Z,1.3
2018-05-16T10:05:16.244Z,1.3
2018-05-16T10:08:25.550Z,2.2
2018-05-16T10:09:28.282Z,0.0
2018-05-16T10:10:46.383Z,0.0
2018-05-16T10:11:29.217Z,0.2
2018-05-16T10:13:34.156Z,0.2
2018-05-16T10:14:26.850Z,0.2
2018-05-16T10:15:48.414Z,0.2
2018-05-16T10:16:34.121Z,0.2
2018-05-16T10:17:23.665Z,11.1
2018-05-16T10:18:39.035Z,11.1
2018-05-16T10:19:30.868Z,4.1
2018-05-16T10:20:40.410Z,4.1
2018-05-16T10:21:44.321Z,4.1
2018-05-16T10:22:29.769Z,3.6
2018-05-16T10:23:49.224Z,3.6
2018-05-16T10:24:20.112Z,3.6
2018-05-16T10:25:24.304Z,3.6
2018-05-16T10:26:21.557Z,3.6
2018-05-16T10:27:23.039Z,5.8
2018-05-16T10:28:21.758Z,5.8
2018-05-16T10:29:24.546Z,6.3
2018-05-16T10:31:21.455Z,6.3
2018-05-16T10:32:21.261Z,7.5
2018-05-16T10:33:22.435Z,7.5
2018-05-16T10:34:23.016Z,18.6
2018-05-16T10:35:40.780Z,18.6
2018-05-16T10:37:09.054Z,18.6
2018-05-16T10:39:19.888Z,2.7
2018-05-16T10:40:50.369Z,2.7
2018-05-16T10:41:58.637Z,2.7
2018-05-16T10:43:17.554Z,2.7
2018-05-16T10:43:27.998Z,2.7
2018-05-16T10:45:27.083Z,6.3
2018-05-16T10:46:28.551Z,6.3
2018-05-16T10:48:05.169Z,2.7
2018-05-16T10:49:33.477Z,2.7
2018-05-16T10:50:19.086Z,2.7
2018-05-16T10:51:30.289Z,3.3
2018-05-16T10:51:56.269Z,3.3
2018-05-16T10:54:00.837Z,1.3
2018-05-16T10:55:06.533Z,2.7
2018-05-16T10:55:47.958Z,2.7
2018-05-16T10:56:54.573Z,2.7
2018-05-16T10:57:52.430Z,0.2
2018-05-16T10:58:49.323Z,0.2
2018-05-16T10:59:55.610Z,2.2
2018-05-16T11:00:54.117Z,2.2
2018-05-16T11:01:54.713Z,2.2
2018-05-16T11:02:58.162Z,0.2
2018-05-16T11:03:52.041Z,0.2
2018-05-16T11:04:49.398Z,0.2
2018-05-16T11:05:46.915Z,0.2
2018-05-16T11:06:51.824Z,0.2
2018-05-16T11:09:57.782Z,0.0
2018-05-16T11:10:59.781Z,0.0
2018-05-16T11:12:10.404Z,0.0
2018-05-16T11:13:09.117Z,0.0
2018-05-16T11:13:50.085Z,0.0
2018-05-16T11:17:35.277Z,0.0
2018-05-16T11:18:04.149Z,0.0
2018-05-16T11:18:56.931Z,0.0
2018-05-16T11:20:03.007Z,0.0
2018-05-16T11:21:04.563Z,0.8
2018-05-16T11:21:55.903Z,0.8
2018-05-16T11:22:55.140Z,1.3
2018-05-16T11:23:55.264Z,1.3
2018-05-16T11:24:55.168Z,1.3
2018-05-16T11:26:06.638Z,1.1
2018-05-16T11:26:47.408Z,1.1
2018-05-16T11:27:51.366Z,7.5
2018-05-16T11:28:46.969Z,7.5
2018-05-16T11:29:47.279Z,7.5
2018-05-16T11:30:47.108Z,7.2
2018-05-16T11:31:46.891Z,7.2
2018-05-16T11:33:53.762Z,3.8
2018-05-16T11:35:08.061Z,3.8
2018-05-16T11:36:03.939Z,3.3
2018-05-16T11:37:15.243Z,3.3
2018-05-16T11:38:11.495Z,3.6
2018-05-16T11:41:41.247Z,2.5
2018-05-16T11:42:29.508Z,2.5
2018-05-16T11:43:20.609Z,0.2
2018-05-16T11:45:20.746Z,0.2
2018-05-16T11:46:18.636Z,0.2
2018-05-16T11:47:17.193Z,0.2
2018-05-16T11:49:37.036Z,0.0
2018-05-16T11:50:31.374Z,0.0
2018-05-16T11:51:50.853Z,0.0
2018-05-16T11:52:24.802Z,0.0
2018-05-16T11:53:22.239Z,0.0
2018-05-16T11:54:33.392Z,0.0
2018-05-16T11:55:30.092Z,0.0
2018-05-16T11:56:46.068Z,0.0
2018-05-16T11:57:36.961Z,0.0
2018-05-16T11:58:31.771Z,0.0
2018-05-16T12:00:30.063Z,0.0
2018-05-16T12:01:43.354Z,0.0
2018-05-16T12:02:37.655Z,0.0
2018-05-16T12:03:49.609Z,0.0
2018-05-16T12:04:41.988Z,0.0
2018-05-16T12:05:35.582Z,0.0
2018-05-16T12:06:54.695Z,0.0
2018-05-16T12:07:18.338Z,0.0
2018-05-16T12:09:50.796Z,0.0
2018-05-16T12:10:31.089Z,0.0
2018-05-16T12:13:40.083Z,0.0
2018-05-16T12:14:51.300Z,0.0
2018-05-16T12:15:45.634Z,0.0
2018-05-16T12:16:44.904Z,0.2
2018-05-16T12:18:47.609Z,0.2
2018-05-16T12:19:37.847Z,0.5
2018-05-16T12:20:27.243Z,0.5
2018-05-16T12:22:18.430Z,0.5
2018-05-16T12:23:27.795Z,0.5
2018-05-16T12:24:25.694Z,0.5
2018-05-16T12:25:17.652Z,0.5
2018-05-16T12:26:19.646Z,0.5
2018-05-16T12:27:46.886Z,0.5
2018-05-16T12:28:35.818Z,0.5
2018-05-16T12:29:34.335Z,0.0
2018-05-16T12:30:57.804Z,0.0
2018-05-16T12:31:58.631Z,0.0
2018-05-16T12:33:23.774Z,0.0
2018-05-16T12:34:02.713Z,0.0
2018-05-16T12:35:06.626Z,0.0
2018-05-16T12:36:04.333Z,0.0
2018-05-16T12:36:53.283Z,0.0
2018-05-16T12:38:28.384Z,0.0
2018-05-16T12:39:06.588Z,0.0
2018-05-16T12:39:53.937Z,0.0
2018-05-16T12:40:39.135Z,0.0
2018-05-16T12:41:37.303Z,0.2
2018-05-16T12:42:37.486Z,0.2
2018-05-16T12:43:36.102Z,0.2
2018-05-16T12:44:40.246Z,1.6
2018-05-16T12:46:25.124Z,1.6
2018-05-16T12:47:07.548Z,0.2
2018-05-16T12:48:17.413Z,0.2
2018-05-16T12:48:51.027Z,0.2
2018-05-16T12:50:50.885Z,0.2
2018-05-16T12:51:53.858Z,0.2
2018-05-16T12:53:28.965Z,0.2
2018-05-16T12:54:58.156Z,0.2
2018-05-16T12:56:07.097Z,0.2
2018-05-16T12:57:22.243Z,0.2
2018-05-16T12:58:11.169Z,0.2
2018-05-16T12:58:55.539Z,0.2
2018-05-16T12:59:49.183Z,0.0
2018-05-16T13:00:31.498Z,0.0
2018-05-16T13:01:30.840Z,0.0
2018-05-16T13:02:29.771Z,0.0
2018-05-16T13:05:43.460Z,0.2
2018-05-16T13:07:34.677Z,0.2
2018-05-16T13:09:41.595Z,0.2
2018-05-16T13:09:53.363Z,0.0
2018-05-16T13:10:53.962Z,0.0
2018-05-16T13:11:59.805Z,0.0
2018-05-16T13:12:53.529Z,0.0
2018-05-16T13:13:54.636Z,0.0
2018-05-16T13:14:53.653Z,0.8
2018-05-16T13:15:53.215Z,0.8
2018-05-16T13:16:53.316Z,0.0
2018-05-16T13:17:53.351Z,0.0
2018-05-16T13:18:53.523Z,0.0
2018-05-16T13:19:53.113Z,0.0
2018-05-16T13:20:53.952Z,0.0
2018-05-16T13:21:54.291Z,0.0
2018-05-16T13:22:55.317Z,0.0
2018-05-16T13:23:53.808Z,0.0
2018-05-16T13:25:26.124Z,0.0
2018-05-16T13:26:30.342Z,0.0
2018-05-16T13:27:48.196Z,0.0
2018-05-16T13:28:25.293Z,0.0
2018-05-16T13:28:55.744Z,0.0
2018-05-16T13:29:56.059Z,0.5
2018-05-16T13:30:55.984Z,0.5
2018-05-16T13:31:55.890Z,0.5
2018-05-16T13:32:56.744Z,0.0
2018-05-16T13:33:55.743Z,0.0
2018-05-16T13:34:55.967Z,1.3
2018-05-16T13:35:58.393Z,1.3
2018-05-16T13:37:00.332Z,1.3
2018-05-16T13:38:42.582Z,0.2
2018-05-16T13:39:37.786Z,0.2
2018-05-16T13:40:14.366Z,0.8
2018-05-16T13:40:56.619Z,0.8
2018-05-16T13:41:56.241Z,0.8
2018-05-16T13:42:58.068Z,0.2
2018-05-16T13:43:55.553Z,0.2
2018-05-16T13:44:55.958Z,0.2
2018-05-16T13:45:55.516Z,0.2
2018-05-16T13:46:55.607Z,0.2
2018-05-16T13:47:55.873Z,0.2
2018-05-16T13:48:55.555Z,0.2
2018-05-16T13:49:55.541Z,0.5
2018-05-16T13:50:55.587Z,0.5
2018-05-16T13:51:55.585Z,0.5
2018-05-16T13:54:03.070Z,0.0
2018-05-16T13:54:24.204Z,0.0
2018-05-16T13:55:20.173Z,0.0
2018-05-16T13:56:31.299Z,0.0
2018-05-16T13:57:13.950Z,0.0
2018-05-16T13:58:12.908Z,1.1
2018-05-16T13:59:17.207Z,1.1
2018-05-16T14:01:02.702Z,0.8
2018-05-16T14:01:13.368Z,0.8
2018-05-16T14:02:12.764Z,0.8
2018-05-16T14:03:12.870Z,1.6
2018-05-16T14:04:12.706Z,1.6
2018-05-16T14:05:12.724Z,1.1
2018-05-16T14:06:12.664Z,1.1
2018-05-16T14:07:12.742Z,1.1
2018-05-16T14:08:12.592Z,0.8
2018-05-16T14:09:12.862Z,0.8
2018-05-16T14:10:12.737Z,0.8
2018-05-16T14:11:13.423Z,0.8
2018-05-16T14:12:13.650Z,0.8
2018-05-16T14:13:12.725Z,0.0
2018-05-16T14:14:12.701Z,0.0
2018-05-16T14:15:12.801Z,0.0
2018-05-16T14:16:12.657Z,0.5
2018-05-16T14:17:32.036Z,0.5
2018-05-16T14:18:12.966Z,0.0
2018-05-16T14:20:21.829Z,0.0
2018-05-16T14:21:13.282Z,0.8
2018-05-16T14:22:12.565Z,0.8
2018-05-16T14:23:12.546Z,0.0
2018-05-16T14:24:12.826Z,0.0
2018-05-16T14:25:12.998Z,0.0
2018-05-16T14:26:13.896Z,0.0
2018-05-16T14:27:12.601Z,0.0
2018-05-16T14:28:12.648Z,0.0
2018-05-16T14:29:12.817Z,0.0
2018-05-16T14:30:12.831Z,0.0
2018-05-16T14:31:12.561Z,0.0
2018-05-16T14:32:12.727Z,0.0
2018-05-16T14:33:13.088Z,16.1
2018-05-16T14:34:12.759Z,16.1
2018-05-16T14:35:13.187Z,16.1
2018-05-16T14:36:13.945Z,2.5
2018-05-16T14:37:13.903Z,2.5
2018-05-16T14:38:12.657Z,3.0
2018-05-16T14:39:12.574Z,3.0
2018-05-16T14:40:13.644Z,3.0
2018-05-16T14:41:12.571Z,1.6
2018-05-16T14:42:12.534Z,1.6
2018-05-16T14:43:13.062Z,1.6
2018-05-16T14:44:13.230Z,1.1
2018-05-16T14:45:12.649Z,1.1
2018-05-16T14:46:12.607Z,0.0
2018-05-16T14:47:13.613Z,0.0
2018-05-16T14:48:12.925Z,0.0
2018-05-16T14:49:12.630Z,0.2
2018-05-16T14:50:12.773Z,0.2
2018-05-16T14:51:13.493Z,1.6
2018-05-16T14:52:12.653Z,1.6
2018-05-16T14:53:12.632Z,1.6
2018-05-16T14:54:13.113Z,0.8
2018-05-16T14:55:12.789Z,0.8
2018-05-16T14:56:12.778Z,1.3
2018-05-16T14:57:12.667Z,1.3
2018-05-16T14:58:12.714Z,1.3
2018-05-16T14:59:12.680Z,0.8
2018-05-16T15:00:13.906Z,0.8
2018-05-16T15:01:21.791Z,0.2
2018-05-16T15:02:13.504Z,0.2
2018-05-16T15:03:13.091Z,0.2
2018-05-16T15:04:13.617Z,1.3
2018-05-16T15:05:15.569Z,1.3
2018-05-16T15:06:13.072Z,11.6
2018-05-16T15:07:12.972Z,11.6
2018-05-16T15:08:13.980Z,11.6
2018-05-16T15:09:13.846Z,11.6
2018-05-16T15:10:12.834Z,11.6
2018-05-16T15:11:13.606Z,0.8
2018-05-16T15:12:13.218Z,0.8
2018-05-16T15:13:12.963Z,0.8
2018-05-16T15:14:12.751Z,1.9
2018-05-16T15:15:13.362Z,1.9
2018-05-16T15:16:13.100Z,1.9
2018-05-16T15:17:12.885Z,0.8
2018-05-16T15:18:13.035Z,0.8
2018-05-16T15:19:12.789Z,0.8
2018-05-16T15:20:12.950Z,0.8
2018-05-16T15:21:13.297Z,0.8
2018-05-16T15:22:13.705Z,0.2
2018-05-16T15:23:29.894Z,0.2
2018-05-16T15:24:13.760Z,0.2
2018-05-16T15:25:13.035Z,0.2
2018-05-16T15:26:12.692Z,0.2
2018-05-16T15:27:12.657Z,0.2
2018-05-16T15:28:12.683Z,0.2
2018-05-16T15:29:12.723Z,0.5
2018-05-16T15:30:13.012Z,0.5
2018-05-16T15:31:12.696Z,0.5
2018-05-16T15:32:12.691Z,0.0
2018-05-16T15:33:28.962Z,0.0
2018-05-16T15:34:13.675Z,0.0
2018-05-16T15:35:12.802Z,0.0
2018-05-16T15:36:13.007Z,0.0
2018-05-16T15:37:12.708Z,0.0
2018-05-16T15:38:12.909Z,0.0
2018-05-16T15:39:12.651Z,0.0
2018-05-16T15:40:13.363Z,0.0
2018-05-16T15:41:12.713Z,0.0
2018-05-16T15:42:13.034Z,0.5
2018-05-16T15:43:12.739Z,0.5
2018-05-16T15:44:12.731Z,0.5
2018-05-16T15:45:13.300Z,0.0
2018-05-16T15:46:13.016Z,0.0
2018-05-16T15:47:12.675Z,0.0
2018-05-16T15:48:14.569Z,0.0
2018-05-16T15:49:14.663Z,0.0
2018-05-16T15:50:14.036Z,0.0
2018-05-16T15:51:12.885Z,0.0
2018-05-16T15:52:12.842Z,1.9